createdAt,value
2022-08-05T00:01:35.588Z,23.29
2022-08-05T00:04:18.927Z,23.33
2022-08-05T00:06:47.059Z,23.22
2022-08-05T00:09:15.686Z,23.29
2022-08-05T00:11:49.002Z,23.28
2022-08-05T00:14:28.967Z,23.22
2022-08-05T00:16:56.280Z,23.19
2022-08-05T00:19:24.727Z,23.19
2022-08-05T00:21:59.980Z,23.13
2022-08-05T00:24:30.994Z,23.13
2022-08-05T00:26:59.919Z,23.05
2022-08-05T00:29:37.932Z,23.04
2022-08-05T00:32:12.262Z,23.01
2022-08-05T00:35:05.780Z,23.01
2022-08-05T00:37:35.777Z,22.96
2022-08-05T00:40:27.345Z,22.89
2022-08-05T00:43:01.011Z,22.88
2022-08-05T00:45:43.138Z,22.84
2022-08-05T00:48:13.526Z,22.84
2022-08-05T00:50:44.127Z,22.70
2022-08-05T00:53:45.070Z,22.62
2022-08-05T00:55:59.200Z,22.76
2022-08-05T00:58:27.725Z,22.76
2022-08-05T01:00:55.457Z,22.72
2022-08-05T01:03:23.515Z,22.66
2022-08-05T01:05:51.638Z,22.69
2022-08-05T01:08:41.774Z,22.68
2022-08-05T01:11:13.962Z,22.63
2022-08-05T01:14:02.798Z,22.61
2022-08-05T01:16:38.597Z,22.63
2022-08-05T01:19:56.041Z,22.63
2022-08-05T01:22:29.393Z,22.57
2022-08-05T01:25:14.242Z,22.55
2022-08-05T01:28:07.050Z,22.55
2022-08-05T01:30:40.104Z,22.55
2022-08-05T01:33:21.942Z,22.54
2022-08-05T01:35:57.486Z,22.46
2022-08-05T01:38:30.180Z,22.48
2022-08-05T01:41:01.303Z,22.46
2022-08-05T01:43:29.947Z,22.40
2022-08-05T01:45:57.918Z,22.40
2022-08-05T01:48:30.560Z,22.39
2022-08-05T01:51:00.158Z,22.35
2022-08-05T01:53:55.017Z,22.29
2022-08-05T01:58:10.296Z,22.29
2022-08-05T01:59:20.950Z,22.28
2022-08-05T02:01:52.126Z,22.26
2022-08-05T02:04:24.295Z,22.25
2022-08-05T02:06:53.107Z,22.22
2022-08-05T02:09:20.544Z,22.20
2022-08-05T02:12:06.160Z,22.21
2022-08-05T02:14:43.321Z,22.18
2022-08-05T02:18:12.509Z,22.11
2022-08-05T02:20:20.490Z,22.03
2022-08-05T02:22:56.769Z,22.08
2022-08-05T02:25:33.285Z,22.07
2022-08-05T02:28:08.644Z,22.05
2022-08-05T02:30:51.689Z,22.08
2022-08-05T02:33:24.532Z,22.05
2022-08-05T02:36:05.114Z,22.06
2022-08-05T02:38:35.390Z,22.02
2022-08-05T02:41:14.535Z,22.06
2022-08-05T02:44:02.640Z,22.05
2022-08-05T02:46:53.428Z,21.99
2022-08-05T02:49:35.842Z,21.88
2022-08-05T02:52:09.334Z,22.04
2022-08-05T02:54:41.200Z,22.02
2022-08-05T02:58:11.078Z,22.02
2022-08-05T02:59:59.839Z,22.00
2022-08-05T03:02:38.391Z,21.94
2022-08-05T03:05:09.384Z,21.91
2022-08-05T03:07:59.449Z,21.88
2022-08-05T03:10:26.511Z,21.88
2022-08-05T03:12:54.446Z,21.87
2022-08-05T03:15:24.343Z,21.86
2022-08-05T03:17:58.151Z,21.89
2022-08-05T03:20:27.318Z,21.90
2022-08-05T03:22:57.677Z,21.72
2022-08-05T03:25:33.079Z,21.78
2022-08-05T03:28:14.674Z,21.77
2022-08-05T03:30:48.733Z,21.81
2022-08-05T03:33:17.036Z,21.85
2022-08-05T03:35:49.776Z,21.81
2022-08-05T03:38:17.228Z,21.81
2022-08-05T03:40:59.964Z,21.78
2022-08-05T03:44:08.498Z,21.78
2022-08-05T03:46:18.320Z,21.74
2022-08-05T03:48:46.789Z,21.73
2022-08-05T03:52:48.778Z,21.74
2022-08-05T03:55:50.601Z,21.73
2022-08-05T03:57:16.736Z,21.73
2022-08-05T03:59:54.794Z,21.76
2022-08-05T04:02:37.952Z,21.83
2022-08-05T04:05:09.851Z,21.79
2022-08-05T04:07:57.430Z,21.79
2022-08-05T04:10:37.583Z,21.80
2022-08-05T04:13:08.135Z,21.79
2022-08-05T04:15:36.610Z,21.81
2022-08-05T04:18:09.372Z,21.88
2022-08-05T04:20:38.021Z,21.80
2022-08-05T04:23:12.606Z,21.91
2022-08-05T04:26:00.180Z,21.98
2022-08-05T04:28:30.790Z,22.05
2022-08-05T04:31:01.098Z,22.11
2022-08-05T04:33:54.468Z,22.18
2022-08-05T04:36:44.652Z,22.25
2022-08-05T04:39:04.351Z,22.29
2022-08-05T04:41:37.901Z,22.23
2022-08-05T04:44:09.041Z,22.39
2022-08-05T04:46:37.792Z,22.44
2022-08-05T04:49:12.428Z,22.51
2022-08-05T04:51:44.235Z,22.51
2022-08-05T04:54:12.130Z,22.53
2022-08-05T04:56:40.130Z,22.64
2022-08-05T04:59:22.460Z,22.64
2022-08-05T05:02:07.505Z,22.66
2022-08-05T05:04:47.922Z,22.67
2022-08-05T05:07:18.309Z,22.66
2022-08-05T05:09:52.350Z,22.56
2022-08-05T05:12:21.038Z,22.70
2022-08-05T05:14:51.359Z,22.73
2022-08-05T05:17:23.823Z,22.80
2022-08-05T05:19:54.975Z,22.88
2022-08-05T05:22:26.312Z,22.90
2022-08-05T05:24:57.134Z,23.04
2022-08-05T05:27:41.361Z,23.10
2022-08-05T05:30:29.433Z,23.17
2022-08-05T05:33:03.890Z,23.17
2022-08-05T05:35:44.960Z,23.21
2022-08-05T05:38:12.906Z,23.32
2022-08-05T05:40:49.566Z,23.34
2022-08-05T05:43:22.229Z,23.40
2022-08-05T05:46:05.483Z,23.44
2022-08-05T05:48:37.961Z,23.59
2022-08-05T05:51:15.848Z,23.65
2022-08-05T05:53:54.222Z,23.71
2022-08-05T05:56:32.782Z,23.74
2022-08-05T05:59:06.691Z,23.78
2022-08-05T06:01:40.308Z,23.93
2022-08-05T06:04:14.728Z,24.00
2022-08-05T06:06:47.627Z,24.16
2022-08-05T06:09:25.662Z,24.22
2022-08-05T06:12:03.002Z,24.33
2022-08-05T06:14:31.251Z,24.43
2022-08-05T06:16:59.083Z,24.56
2022-08-05T06:19:35.346Z,24.69
2022-08-05T06:22:07.079Z,24.85
2022-08-05T06:24:35.371Z,24.99
2022-08-05T06:27:03.911Z,25.16
2022-08-05T06:29:49.047Z,25.36
2022-08-05T06:32:25.128Z,25.55
2022-08-05T06:34:59.261Z,25.79
2022-08-05T06:37:56.446Z,25.98
2022-08-05T06:40:18.582Z,26.17
2022-08-05T06:42:51.983Z,26.34
2022-08-05T06:46:02.891Z,26.51
2022-08-05T06:48:36.593Z,26.74
2022-08-05T06:50:56.317Z,26.96
2022-08-05T06:53:28.417Z,27.11
2022-08-05T06:56:00.965Z,27.35
2022-08-05T06:58:29.965Z,27.50
2022-08-05T07:01:04.879Z,27.65
2022-08-05T07:03:33.883Z,27.67
2022-08-05T07:06:05.799Z,27.67
2022-08-05T07:08:43.048Z,28.03
2022-08-05T07:11:15.970Z,28.32
2022-08-05T07:14:02.380Z,28.49
2022-08-05T07:17:57.299Z,28.66
2022-08-05T07:22:28.185Z,28.82
2022-08-05T07:24:59.408Z,28.83
2022-08-05T07:27:27.554Z,29.07
2022-08-05T07:30:24.260Z,29.25
2022-08-05T07:32:55.472Z,29.44
2022-08-05T07:36:04.715Z,29.44
2022-08-05T07:38:32.421Z,29.55
2022-08-05T07:41:04.470Z,29.67
2022-08-05T07:43:46.739Z,29.87
2022-08-05T07:46:25.265Z,29.95
2022-08-05T07:49:02.590Z,29.98
2022-08-05T07:51:37.581Z,30.21
2022-08-05T07:54:09.711Z,30.29
2022-08-05T07:57:00.691Z,30.33
2022-08-05T07:59:39.047Z,30.43
2022-08-05T08:02:16.095Z,30.50
2022-08-05T08:04:49.223Z,30.65
2022-08-05T08:07:18.888Z,30.79
2022-08-05T08:09:52.422Z,30.97
2022-08-05T08:12:35.331Z,31.05
2022-08-05T08:15:15.323Z,31.13
2022-08-05T08:17:52.435Z,31.19
2022-08-05T08:20:44.087Z,31.20
2022-08-05T08:23:59.993Z,31.29
2022-08-05T08:26:02.455Z,31.38
2022-08-05T08:28:35.625Z,31.50
2022-08-05T08:31:07.874Z,31.64
2022-08-05T08:33:37.670Z,31.80
2022-08-05T08:38:56.143Z,31.87
2022-08-05T08:41:51.737Z,32.00
2022-08-05T08:45:22.264Z,32.06
2022-08-05T08:47:47.332Z,32.22
2022-08-05T08:50:07.690Z,32.38
2022-08-05T08:52:47.402Z,32.49
2022-08-05T08:56:02.739Z,32.59
2022-08-05T08:58:08.665Z,32.79
2022-08-05T09:00:36.490Z,32.79
2022-08-05T09:03:06.965Z,32.51
2022-08-05T09:05:38.798Z,32.74
2022-08-05T09:08:27.357Z,32.81
2022-08-05T09:10:55.026Z,32.92
2022-08-05T09:13:23.648Z,33.07
2022-08-05T09:15:51.951Z,33.14
2022-08-05T09:18:19.112Z,33.31
2022-08-05T09:20:47.348Z,33.29
2022-08-05T09:23:21.960Z,33.36
2022-08-05T09:26:02.156Z,33.46
2022-08-05T09:28:33.792Z,33.59
2022-08-05T09:31:23.000Z,33.70
2022-08-05T09:34:03.164Z,33.76
2022-08-05T09:36:56.327Z,33.89
2022-08-05T09:39:41.859Z,33.98
2022-08-05T09:42:23.309Z,33.97
2022-08-05T09:44:56.151Z,34.00
2022-08-05T09:47:29.684Z,34.04
2022-08-05T09:50:13.757Z,34.24
2022-08-05T09:52:45.943Z,34.30
2022-08-05T09:55:56.369Z,34.27
2022-08-05T09:58:00.660Z,34.26
2022-08-05T10:00:29.636Z,34.25
2022-08-05T10:02:58.828Z,34.35
2022-08-05T10:05:32.730Z,34.38
2022-08-05T10:08:35.879Z,34.27
2022-08-05T10:10:50.270Z,34.17
2022-08-05T10:13:31.571Z,34.02
2022-08-05T10:16:34.335Z,33.98
2022-08-05T10:19:10.232Z,33.88
2022-08-05T10:21:40.303Z,33.94
2022-08-05T10:24:13.781Z,33.93
2022-08-05T10:26:51.169Z,33.99
2022-08-05T10:30:05.758Z,34.11
2022-08-05T10:32:52.112Z,34.09
2022-08-05T10:35:00.832Z,34.26
2022-08-05T10:37:40.337Z,34.33
2022-08-05T10:40:43.469Z,34.20
2022-08-05T10:43:17.694Z,34.05
2022-08-05T10:46:06.337Z,34.10
2022-08-05T10:48:52.848Z,34.21
2022-08-05T10:51:29.177Z,34.45
2022-08-05T10:54:01.586Z,34.52
2022-08-05T10:56:53.550Z,34.42
2022-08-05T11:00:04.211Z,34.48
2022-08-05T11:02:38.518Z,34.48
2022-08-05T11:05:06.875Z,34.54
2022-08-05T11:08:02.477Z,34.58
2022-08-05T11:10:27.414Z,34.68
2022-08-05T11:12:56.829Z,34.81
2022-08-05T11:15:58.971Z,34.91
2022-08-05T11:18:14.574Z,35.06
2022-08-05T11:20:46.261Z,35.09
2022-08-05T11:24:04.139Z,35.09
2022-08-05T11:26:34.240Z,34.95
2022-08-05T11:29:12.359Z,34.85
2022-08-05T11:31:54.172Z,34.81
2022-08-05T11:34:50.767Z,34.87
2022-08-05T11:38:28.579Z,34.89
2022-08-05T11:41:14.071Z,34.90
2022-08-05T11:44:07.245Z,34.81
2022-08-05T11:47:09.807Z,34.84
2022-08-05T11:49:25.319Z,34.76
2022-08-05T11:51:57.386Z,34.47
2022-08-05T11:54:32.718Z,34.25
2022-08-05T11:57:08.643Z,34.26
2022-08-05T11:59:50.150Z,34.08
2022-08-05T12:02:29.919Z,33.97
2022-08-05T12:05:00.700Z,33.86
2022-08-05T12:08:08.457Z,33.74
2022-08-05T12:10:24.857Z,33.78
2022-08-05T12:13:17.352Z,33.87
2022-08-05T12:15:53.066Z,33.78
2022-08-05T12:18:38.969Z,33.86
2022-08-05T12:21:15.166Z,33.80
2022-08-05T12:23:54.597Z,33.77
2022-08-05T12:26:23.225Z,33.75
2022-08-05T12:28:51.467Z,33.62
2022-08-05T12:31:23.705Z,33.60
2022-08-05T12:34:07.516Z,33.69
2022-08-05T12:36:37.199Z,33.83
2022-08-05T12:39:07.006Z,33.89
2022-08-05T12:41:36.465Z,33.91
2022-08-05T12:44:21.769Z,33.88
2022-08-05T12:47:01.799Z,33.87
2022-08-05T12:50:04.747Z,33.92
2022-08-05T12:52:38.823Z,33.87
2022-08-05T12:55:22.689Z,33.88
2022-08-05T12:58:50.693Z,33.88
2022-08-05T13:02:03.284Z,33.72
2022-08-05T13:03:32.895Z,33.78
2022-08-05T13:06:01.844Z,33.74
2022-08-05T13:08:33.064Z,33.71
2022-08-05T13:11:04.090Z,33.74
2022-08-05T13:14:04.608Z,33.88
2022-08-05T13:16:20.397Z,33.85
2022-08-05T13:18:58.553Z,33.82
2022-08-05T13:21:28.542Z,33.78
2022-08-05T13:24:08.751Z,33.81
2022-08-05T13:26:36.422Z,33.87
2022-08-05T13:29:05.253Z,33.82
2022-08-05T13:32:03.330Z,33.97
2022-08-05T13:34:25.975Z,34.04
2022-08-05T13:36:54.340Z,34.03
2022-08-05T13:39:24.366Z,34.01
2022-08-05T13:42:14.364Z,33.97
2022-08-05T13:44:46.070Z,33.91
2022-08-05T13:47:34.919Z,33.83
2022-08-05T13:50:06.592Z,33.82
2022-08-05T13:52:36.913Z,33.72
2022-08-05T13:55:07.335Z,33.79
2022-08-05T13:57:51.530Z,33.77
2022-08-05T14:00:27.165Z,33.78
2022-08-05T14:02:56.971Z,33.72
2022-08-05T14:05:48.446Z,33.71
2022-08-05T14:08:20.398Z,33.68
2022-08-05T14:11:03.209Z,33.63
2022-08-05T14:13:41.931Z,33.60
2022-08-05T14:16:11.025Z,33.54
2022-08-05T14:18:39.158Z,33.53
2022-08-05T14:22:09.439Z,33.50
2022-08-05T14:23:54.117Z,33.42
2022-08-05T14:26:35.462Z,33.33
2022-08-05T14:29:16.205Z,33.27
2022-08-05T14:32:03.859Z,33.25
2022-08-05T14:34:35.404Z,33.19
2022-08-05T14:37:04.581Z,33.20
2022-08-05T14:39:49.441Z,33.16
2022-08-05T14:42:20.937Z,33.15
2022-08-05T14:44:49.850Z,33.17
2022-08-05T14:47:17.558Z,33.19
2022-08-05T14:50:17.166Z,33.23
2022-08-05T14:52:53.025Z,33.22
2022-08-05T14:55:20.990Z,33.14
2022-08-05T14:57:54.632Z,33.19
2022-08-05T15:00:28.090Z,33.21
2022-08-05T15:02:57.074Z,33.22
2022-08-05T15:05:29.544Z,33.18
2022-08-05T15:08:13.202Z,33.17
2022-08-05T15:10:46.051Z,33.16
2022-08-05T15:13:14.591Z,33.12
2022-08-05T15:15:55.552Z,33.03
2022-08-05T15:18:25.181Z,33.06
2022-08-05T15:20:52.190Z,33.04
2022-08-05T15:23:19.830Z,33.02
2022-08-05T15:25:53.303Z,33.01
2022-08-05T15:28:27.030Z,32.94
2022-08-05T15:30:55.236Z,32.95
2022-08-05T15:34:05.686Z,32.93
2022-08-05T15:36:17.422Z,32.89
2022-08-05T15:41:04.792Z,32.87
2022-08-05T15:41:56.143Z,32.85
2022-08-05T15:44:27.415Z,32.81
2022-08-05T15:46:55.700Z,32.77
2022-08-05T15:49:40.950Z,32.74
2022-08-05T15:52:16.385Z,32.77
2022-08-05T15:54:44.412Z,32.74
2022-08-05T15:57:14.020Z,32.60
2022-08-05T15:59:41.272Z,32.60
2022-08-05T16:02:09.562Z,32.62
2022-08-05T16:04:42.409Z,32.53
2022-08-05T16:07:10.785Z,32.59
2022-08-05T16:09:41.518Z,32.53
2022-08-05T16:12:09.416Z,32.58
2022-08-05T16:14:38.709Z,32.51
2022-08-05T16:17:05.881Z,32.52
2022-08-05T16:20:04.553Z,32.47
2022-08-05T16:22:27.528Z,32.35
2022-08-05T16:25:01.079Z,32.45
2022-08-05T16:28:00.152Z,32.45
2022-08-05T16:30:26.038Z,32.40
2022-08-05T16:32:54.391Z,32.35
2022-08-05T16:35:27.957Z,32.31
2022-08-05T16:38:14.886Z,32.31
2022-08-05T16:40:52.001Z,32.24
2022-08-05T16:43:26.550Z,32.19
2022-08-05T16:46:04.377Z,32.16
2022-08-05T16:48:38.538Z,32.11
2022-08-05T16:51:09.677Z,32.02
2022-08-05T16:54:03.141Z,32.03
2022-08-05T16:56:27.416Z,31.84
2022-08-05T16:58:54.598Z,31.85
2022-08-05T17:01:22.415Z,31.76
2022-08-05T17:03:52.251Z,31.70
2022-08-05T17:06:20.671Z,31.64
2022-08-05T17:08:54.362Z,31.57
2022-08-05T17:11:25.931Z,31.54
2022-08-05T17:14:05.671Z,31.44
2022-08-05T17:16:38.420Z,31.45
2022-08-05T17:19:07.601Z,31.39
2022-08-05T17:21:37.700Z,31.30
2022-08-05T17:24:19.778Z,31.22
2022-08-05T17:26:57.883Z,31.16
2022-08-05T17:29:40.004Z,31.09
2022-08-05T17:32:11.798Z,31.01
2022-08-05T17:34:47.546Z,30.97
2022-08-05T17:37:40.824Z,30.90
2022-08-05T17:40:10.297Z,30.80
2022-08-05T17:42:43.175Z,30.82
2022-08-05T17:45:21.039Z,30.72
2022-08-05T17:47:53.836Z,30.65
2022-08-05T17:50:28.090Z,30.40
2022-08-05T17:52:59.273Z,30.16
2022-08-05T17:55:27.331Z,29.87
2022-08-05T17:58:02.346Z,29.58
2022-08-05T18:00:30.439Z,29.44
2022-08-05T18:02:58.108Z,29.29
2022-08-05T18:05:27.910Z,29.20
2022-08-05T18:07:56.901Z,29.09
2022-08-05T18:10:24.259Z,29.07
2022-08-05T18:12:52.040Z,28.98
2022-08-05T18:15:19.514Z,28.89
2022-08-05T18:17:59.026Z,28.86
2022-08-05T18:20:31.641Z,28.76
2022-08-05T18:23:09.280Z,28.70
2022-08-05T18:25:45.319Z,28.62
2022-08-05T18:28:16.597Z,28.53
2022-08-05T18:30:51.370Z,28.45
2022-08-05T18:33:22.796Z,28.34
2022-08-05T18:36:04.284Z,28.18
2022-08-05T18:38:36.102Z,28.18
2022-08-05T18:41:53.681Z,28.12
2022-08-05T18:43:55.039Z,28.01
2022-08-05T18:46:25.882Z,27.92
2022-08-05T18:48:56.321Z,27.84
2022-08-05T18:52:03.341Z,27.72
2022-08-05T18:54:31.959Z,27.66
2022-08-05T18:57:00.954Z,27.68
2022-08-05T18:59:44.082Z,27.63
2022-08-05T19:02:26.980Z,27.55
2022-08-05T19:05:02.167Z,27.64
2022-08-05T19:07:50.294Z,27.48
2022-08-05T19:10:26.447Z,27.38
2022-08-05T19:12:54.460Z,27.16
2022-08-05T19:15:57.648Z,27.10
2022-08-05T19:18:13.394Z,27.03
2022-08-05T19:20:49.561Z,26.91
2022-08-05T19:24:03.604Z,26.82
2022-08-05T19:26:04.020Z,26.74
2022-08-05T19:28:32.786Z,26.68
2022-08-05T19:31:04.893Z,26.65
2022-08-05T19:33:36.787Z,26.65
2022-08-05T19:36:06.774Z,26.61
2022-08-05T19:38:35.488Z,26.55
2022-08-05T19:41:07.003Z,26.51
2022-08-05T19:44:06.954Z,26.47
2022-08-05T19:46:30.128Z,26.37
2022-08-05T19:49:05.599Z,26.38
2022-08-05T19:52:09.080Z,26.36
2022-08-05T19:54:29.568Z,26.36
2022-08-05T19:57:09.238Z,26.39
2022-08-05T19:59:56.429Z,26.38
2022-08-05T20:02:31.332Z,26.31
2022-08-05T20:04:59.878Z,26.34
2022-08-05T20:07:47.416Z,26.30
2022-08-05T20:10:17.355Z,26.30
2022-08-05T20:12:49.341Z,26.29
2022-08-05T20:15:48.367Z,26.11
2022-08-05T20:18:10.354Z,26.12
2022-08-05T20:20:57.320Z,26.12
2022-08-05T20:23:39.569Z,26.05
2022-08-05T20:26:16.635Z,26.04
2022-08-05T20:28:48.244Z,26.03
2022-08-05T20:31:16.479Z,26.03
2022-08-05T20:33:45.257Z,25.99
2022-08-05T20:36:14.331Z,26.00
2022-08-05T20:38:53.265Z,26.00
2022-08-05T20:41:27.137Z,26.01
2022-08-05T20:44:17.641Z,26.01
2022-08-05T20:46:48.216Z,25.94
2022-08-05T20:49:18.458Z,25.89
2022-08-05T20:51:53.514Z,25.85
2022-08-05T20:54:26.081Z,25.83
2022-08-05T20:57:14.341Z,25.72
2022-08-05T20:59:46.152Z,25.76
2022-08-05T21:02:30.800Z,25.62
2022-08-05T21:04:57.951Z,25.70
2022-08-05T21:07:50.870Z,25.60
2022-08-05T21:10:17.310Z,25.49
2022-08-05T21:12:57.953Z,25.36
2022-08-05T21:15:33.717Z,25.32
2022-08-05T21:18:02.419Z,25.33
2022-08-05T21:20:33.270Z,25.34
2022-08-05T21:23:01.281Z,25.25
2022-08-05T21:25:33.745Z,25.19
2022-08-05T21:28:03.508Z,25.11
2022-08-05T21:30:31.769Z,25.03
2022-08-05T21:33:01.794Z,24.98
2022-08-05T21:35:43.626Z,24.90
2022-08-05T21:38:17.541Z,24.83
2022-08-05T21:40:45.262Z,24.78
2022-08-05T21:43:17.695Z,24.71
2022-08-05T21:45:57.624Z,24.69
2022-08-05T21:48:29.601Z,24.71
2022-08-05T21:50:59.131Z,24.66
2022-08-05T21:53:27.164Z,24.59
2022-08-05T21:56:05.924Z,24.53
2022-08-05T21:58:48.256Z,24.43
2022-08-05T22:01:26.434Z,24.43
2022-08-05T22:03:54.126Z,24.43
2022-08-05T22:06:35.382Z,24.39
2022-08-05T22:09:13.887Z,24.40
2022-08-05T22:11:46.740Z,24.34
2022-08-05T22:14:35.471Z,24.30
2022-08-05T22:17:06.696Z,24.29
2022-08-05T22:20:03.358Z,24.28
2022-08-05T22:22:27.731Z,24.24
2022-08-05T22:25:21.293Z,24.19
2022-08-05T22:28:08.177Z,24.23
2022-08-05T22:30:55.578Z,24.20
2022-08-05T22:33:57.106Z,24.21
2022-08-05T22:36:16.044Z,24.21
2022-08-05T22:38:47.999Z,24.20
2022-08-05T22:42:04.164Z,24.11
2022-08-05T22:44:05.088Z,24.20
2022-08-05T22:46:32.739Z,24.20
2022-08-05T22:49:00.349Z,24.16
2022-08-05T22:52:02.966Z,24.14
2022-08-05T22:54:15.148Z,24.12
2022-08-05T22:56:43.147Z,24.10
2022-08-05T22:59:45.160Z,24.10
2022-08-05T23:02:06.231Z,24.08
2022-08-05T23:04:34.668Z,24.06
2022-08-05T23:07:02.367Z,24.03
2022-08-05T23:09:57.373Z,23.97
2022-08-05T23:12:18.249Z,23.93
2022-08-05T23:14:45.911Z,23.92
2022-08-05T23:17:35.106Z,23.73
2022-08-05T23:20:17.911Z,23.89
2022-08-05T23:22:47.624Z,23.82
2022-08-05T23:25:51.725Z,23.76
2022-08-05T23:28:06.926Z,23.76
2022-08-05T23:30:40.381Z,23.83
2022-08-05T23:33:22.229Z,23.86
2022-08-05T23:35:56.003Z,23.83
2022-08-05T23:38:26.161Z,23.82
2022-08-05T23:40:54.039Z,23.80
2022-08-05T23:43:25.245Z,23.79
2022-08-05T23:46:20.579Z,23.80
2022-08-05T23:48:59.710Z,23.80
2022-08-05T23:51:53.437Z,23.75
2022-08-05T23:54:26.756Z,23.72
2022-08-05T23:57:03.626Z,23.68
